Time;durP1;ratioP1;P1;durP2;ratioP2;P2;SDS_P1;SDS_P2;PMS_P1;PMS_P2;Temp;Humidity;BMP_temperature;BMP_pressure;BME280_temperature;BME280_humidity;BME280_pressure;Samples;Min_cycle;Max_cycle;Signal;HPM_P1;HPM_P2
2021/12/30 00:05:10;;;;;;;52.90;32.55;;;6.00;85.80;;;;;;10825912;33;20032;-74
2021/12/30 00:11:12;;;;;;;30.75;23.12;;;6.00;85.70;;;;;;10820050;33;20024;-71
2021/12/30 00:17:15;;;;;;;29.60;21.60;;;5.90;85.90;;;;;;10824234;33;20042;-70
2021/12/30 00:23:17;;;;;;;44.47;31.70;;;5.90;85.80;;;;;;10823382;33;20355;-70
2021/12/30 00:29:20;;;;;;;36.20;27.37;;;5.80;85.80;;;;;;10824062;33;20024;-70
2021/12/30 00:35:22;;;;;;;26.80;21.10;;;5.80;85.80;;;;;;10825136;32;20024;-70
2021/12/30 00:41:24;;;;;;;31.00;20.45;;;5.70;85.90;;;;;;10828286;33;20396;-70
2021/12/30 00:47:26;;;;;;;42.10;32.25;;;5.70;85.90;;;;;;10830010;33;20028;-70
2021/12/30 00:53:28;;;;;;;33.13;26.48;;;5.70;85.80;;;;;;10829820;33;20062;-70
2021/12/30 00:59:30;;;;;;;31.33;22.83;;;5.70;85.60;;;;;;10829919;33;20082;-70
2021/12/30 01:05:33;;;;;;;28.77;22.85;;;5.70;85.70;;;;;;10816533;33;20312;-70
2021/12/30 01:11:35;;;;;;;29.10;24.00;;;5.50;85.70;;;;;;10827587;33;20058;-70
2021/12/30 01:17:50;;;;;;;23.30;18.05;;;5.40;85.90;;;;;;10829178;33;20023;-69
2021/12/30 01:23:52;;;;;;;41.00;34.17;;;5.40;85.90;;;;;;10824875;33;20024;-70
2021/12/30 01:29:58;;;;;;;21.77;17.77;;;5.50;85.90;;;;;;10828783;33;20046;-70
2021/12/30 01:36:00;;;;;;;20.52;17.05;;;5.40;85.80;;;;;;10827895;33;20028;-70
2021/12/30 01:42:04;;;;;;;35.13;29.00;;;5.30;85.90;;;;;;10433007;27;12964187;-70
2021/12/30 01:48:06;;;;;;;20.58;17.00;;;5.30;85.90;;;;;;10751236;33;20024;-70
2021/12/30 01:54:09;;;;;;;23.50;16.08;;;5.40;85.80;;;;;;10751555;33;20036;-69
2021/12/30 02:00:17;;;;;;;24.87;19.17;;;5.40;85.60;;;;;;10751015;33;20024;-70
2021/12/30 02:06:39;;;;;;;23.25;16.05;;;5.40;85.50;;;;;;10750667;33;20043;-70
2021/12/30 02:12:42;;;;;;;37.55;29.50;;;5.30;85.60;;;;;;10788262;33;20060;-70
2021/12/30 02:18:44;;;;;;;32.55;24.08;;;5.30;85.60;;;;;;10790902;33;20054;-70
2021/12/30 02:24:49;;;;;;;24.58;18.85;;;5.20;85.60;;;;;;10790233;33;20051;-70
2021/12/30 02:30:54;;;;;;;30.23;22.73;;;5.20;85.70;;;;;;10790665;33;20047;-70
2021/12/30 02:37:01;;;;;;;25.83;18.60;;;5.20;85.70;;;;;;10790477;33;20052;-70
2021/12/30 02:43:06;;;;;;;25.12;17.75;;;5.00;85.70;;;;;;10776764;33;20423;-70
2021/12/30 02:49:09;;;;;;;19.77;14.60;;;4.90;85.80;;;;;;10785927;33;20309;-71
2021/12/30 02:55:11;;;;;;;16.20;12.35;;;4.80;85.70;;;;;;10789718;33;20055;-70
2021/12/30 03:01:29;;;;;;;19.77;14.45;;;4.90;85.80;;;;;;10774790;33;20047;-70
2021/12/30 03:07:31;;;;;;;17.65;14.87;;;4.70;85.80;;;;;;10786440;33;20021;-70
2021/12/30 03:13:35;;;;;;;25.25;18.33;;;4.60;85.90;;;;;;10789305;33;20028;-71
2021/12/30 03:19:37;;;;;;;19.12;14.93;;;4.70;85.90;;;;;;10788765;33;20024;-71
2021/12/30 03:25:39;;;;;;;23.98;15.55;;;4.60;85.90;;;;;;10789018;33;20333;-71
2021/12/30 03:31:41;;;;;;;20.67;16.08;;;4.50;85.80;;;;;;10786522;33;20397;-71
2021/12/30 03:37:43;;;;;;;24.05;17.52;;;4.40;85.90;;;;;;10788545;33;20024;-71
2021/12/30 03:43:46;;;;;;;18.33;13.98;;;4.40;85.90;;;;;;10786771;33;20024;-71
2021/12/30 03:49:48;;;;;;;16.65;13.18;;;4.30;85.90;;;;;;10787458;33;20047;-71
2021/12/30 03:55:51;;;;;;;20.08;16.10;;;4.20;86.00;;;;;;10788189;33;20043;-71
2021/12/30 04:01:53;;;;;;;25.85;18.23;;;4.20;86.10;;;;;;10788287;33;20072;-71
2021/12/30 04:07:55;;;;;;;20.23;15.35;;;4.30;86.00;;;;;;10787924;33;20020;-71
2021/12/30 04:13:57;;;;;;;20.62;15.93;;;4.30;85.90;;;;;;10787890;33;20028;-71
2021/12/30 04:19:59;;;;;;;25.17;20.75;;;4.30;86.00;;;;;;10783659;33;20016;-71
2021/12/30 04:26:01;;;;;;;21.55;15.63;;;4.20;85.90;;;;;;10787461;33;20063;-71
2021/12/30 04:32:04;;;;;;;21.33;17.52;;;4.40;86.00;;;;;;10787312;33;20320;-71
2021/12/30 04:38:06;;;;;;;20.58;17.10;;;4.40;85.90;;;;;;10787323;33;20051;-71
2021/12/30 04:44:08;;;;;;;17.50;11.75;;;4.30;85.80;;;;;;10787100;33;20020;-71
2021/12/30 04:50:12;;;;;;;15.30;9.48;;;4.30;85.90;;;;;;10786929;33;20042;-71
2021/12/30 04:56:37;;;;;;;16.12;12.60;;;4.20;85.90;;;;;;10773863;33;20023;-71
2021/12/30 05:09:01;;;;;;;25.77;19.83;;;4.20;85.90;;;;;;10672192;33;20044;-73
2021/12/30 05:15:03;;;;;;;23.80;19.73;;;4.20;85.80;;;;;;10673547;33;20025;-73
2021/12/30 05:21:05;;;;;;;27.02;20.50;;;4.30;85.80;;;;;;10673704;33;20013;-73
2021/12/30 05:27:08;;;;;;;24.27;17.08;;;4.40;85.70;;;;;;10679218;33;20044;-73
2021/12/30 05:33:10;;;;;;;16.12;12.75;;;4.40;85.70;;;;;;10680087;33;20017;-73
2021/12/30 05:39:25;;;;;;;17.33;13.02;;;4.40;85.80;;;;;;10749030;33;20020;-72
2021/12/30 05:45:27;;;;;;;15.18;12.15;;;4.30;85.70;;;;;;10776830;33;20381;-73
2021/12/30 05:51:29;;;;;;;20.52;14.10;;;4.20;85.70;;;;;;10789204;33;20071;-73
2021/12/30 05:57:32;;;;;;;19.75;15.18;;;4.20;85.90;;;;;;10778436;33;20380;-73
2021/12/30 06:03:35;;;;;;;18.02;13.20;;;4.20;85.90;;;;;;10791226;33;20352;-73
2021/12/30 06:09:37;;;;;;;17.35;13.82;;;4.20;85.90;;;;;;10791304;33;20285;-73
2021/12/30 06:15:39;;;;;;;21.02;14.23;;;4.20;85.90;;;;;;10791074;33;20021;-73
2021/12/30 06:21:41;;;;;;;18.67;12.95;;;4.10;85.70;;;;;;10788073;33;20016;-71
2021/12/30 06:27:53;;;;;;;17.17;12.65;;;4.00;85.90;;;;;;10790711;33;20474;-71
2021/12/30 06:34:26;;;;;;;22.17;17.87;;;4.00;85.90;;;;;;10789879;33;20024;-71
2021/12/30 06:40:29;;;;;;;20.37;13.90;;;3.80;85.70;;;;;;10786948;33;20047;-71
2021/12/30 06:46:32;;;;;;;17.95;14.48;;;3.80;85.90;;;;;;10789884;33;20024;-71
2021/12/30 06:52:34;;;;;;;15.60;9.63;;;3.70;86.00;;;;;;10776695;33;20050;-71
2021/12/30 06:58:37;;;;;;;21.60;16.73;;;3.70;86.00;;;;;;10789845;33;20016;-71
2021/12/30 07:04:40;;;;;;;17.40;11.43;;;3.70;85.90;;;;;;10789568;33;20047;-71
2021/12/30 07:10:42;;;;;;;22.67;15.50;;;3.70;86.00;;;;;;10783998;33;20475;-71
2021/12/30 07:16:44;;;;;;;27.48;18.08;;;3.70;86.10;;;;;;10787068;33;20028;-71
2021/12/30 07:22:48;;;;;;;17.52;12.07;;;3.70;86.00;;;;;;10783913;33;20000;-71
2021/12/30 07:28:50;;;;;;;25.02;16.85;;;3.60;86.00;;;;;;10788699;33;20062;-71
2021/12/30 07:34:52;;;;;;;23.08;16.27;;;3.60;85.90;;;;;;10772894;33;20056;-71
2021/12/30 07:40:54;;;;;;;21.75;17.45;;;3.60;86.00;;;;;;10753102;33;20074;-71
2021/12/30 07:46:56;;;;;;;27.70;22.60;;;3.50;86.00;;;;;;10751134;33;20020;-71
2021/12/30 07:52:59;;;;;;;22.48;17.02;;;3.40;85.90;;;;;;10751761;33;20435;-71
2021/12/30 07:59:01;;;;;;;29.42;24.90;;;3.50;86.00;;;;;;10738682;33;20024;-71
2021/12/30 08:05:04;;;;;;;50.72;37.90;;;3.50;85.80;;;;;;10747221;33;20020;-71
2021/12/30 08:11:06;;;;;;;37.63;26.62;;;3.50;85.90;;;;;;10749669;33;20020;-71
2021/12/30 08:17:08;;;;;;;23.55;18.48;;;3.50;85.90;;;;;;10752716;33;20177;-71
2021/12/30 08:23:11;;;;;;;32.97;23.58;;;3.60;85.90;;;;;;10749005;33;20048;-71
2021/12/30 08:29:15;;;;;;;22.58;18.58;;;3.60;85.80;;;;;;10750612;33;20025;-71
2021/12/30 08:35:21;;;;;;;22.90;17.92;;;3.60;85.90;;;;;;10750627;32;20066;-71
2021/12/30 08:41:23;;;;;;;22.83;15.63;;;3.70;86.00;;;;;;10760221;33;20024;-71
2021/12/30 08:47:27;;;;;;;40.33;27.40;;;3.70;86.00;;;;;;10786722;33;20017;-71
2021/12/30 08:53:30;;;;;;;34.53;19.67;;;3.70;86.00;;;;;;10786965;33;20019;-71
2021/12/30 09:00:01;;;;;;;38.47;23.20;;;3.80;86.00;;;;;;10791497;33;20452;-71
2021/12/30 09:06:05;;;;;;;26.77;18.65;;;3.80;86.00;;;;;;10793941;33;20332;-71
2021/12/30 09:12:08;;;;;;;39.22;20.42;;;3.80;86.00;;;;;;10792535;33;20317;-71
2021/12/30 09:18:10;;;;;;;21.67;15.43;;;3.90;86.10;;;;;;10791818;33;20419;-71
2021/12/30 09:24:14;;;;;;;18.50;14.55;;;4.10;86.10;;;;;;10792303;33;20063;-71
2021/12/30 09:30:17;;;;;;;22.65;15.18;;;4.20;86.00;;;;;;10791961;33;20021;-71
2021/12/30 09:36:39;;;;;;;30.05;21.70;;;4.20;85.90;;;;;;10792050;33;20021;-70
2021/12/30 09:43:04;;;;;;;25.15;18.23;;;4.40;86.00;;;;;;10803040;27;20450;-71
2021/12/30 09:49:08;;;;;;;16.90;12.32;;;4.50;86.00;;;;;;10828540;33;20031;-70
2021/12/30 09:55:11;;;;;;;26.73;19.98;;;4.60;86.00;;;;;;10828251;33;20032;-71
2021/12/30 10:01:22;;;;;;;32.17;20.83;;;4.70;86.00;;;;;;10817404;33;20446;-71
2021/12/30 10:07:24;;;;;;;27.73;18.50;;;4.90;86.00;;;;;;10823898;32;20285;-71
2021/12/30 10:13:32;;;;;;;78.12;40.95;;;5.00;86.00;;;;;;10827589;33;20028;-71
2021/12/30 10:19:34;;;;;;;54.53;32.50;;;5.00;86.10;;;;;;10825592;33;20024;-71
2021/12/30 10:25:45;;;;;;;37.75;27.00;;;5.10;86.30;;;;;;10827450;33;20338;-69
2021/12/30 10:31:48;;;;;;;36.30;26.17;;;5.20;86.30;;;;;;10827313;33;20035;-71
2021/12/30 10:38:04;;;;;;;38.28;28.33;;;5.20;86.60;;;;;;10826984;33;20020;-70
2021/12/30 10:44:06;;;;;;;54.38;37.92;;;5.20;86.70;;;;;;10826867;33;20016;-69
2021/12/30 10:50:11;;;;;;;51.22;33.78;;;5.20;87.00;;;;;;10813440;33;20032;-70
2021/12/30 10:56:21;;;;;;;50.58;34.38;;;5.20;87.10;;;;;;10824925;33;20058;-69
2021/12/30 11:02:26;;;;;;;43.35;29.30;;;5.40;87.10;;;;;;10821257;33;20040;-71
2021/12/30 11:08:29;;;;;;;49.80;34.85;;;5.60;87.10;;;;;;10826368;33;20020;-71
2021/12/30 11:14:39;;;;;;;27.30;19.67;;;5.70;87.00;;;;;;10821961;33;20054;-71
2021/12/30 11:20:43;;;;;;;44.55;31.40;;;5.80;87.00;;;;;;10825414;32;20011;-70
2021/12/30 11:26:47;;;;;;;51.10;33.35;;;5.80;86.90;;;;;;10825071;33;20028;-70
2021/12/30 11:32:49;;;;;;;55.45;39.70;;;5.80;87.30;;;;;;10825156;33;20028;-69
2021/12/30 11:38:51;;;;;;;48.47;35.35;;;5.90;87.40;;;;;;10825305;33;20047;-71
2021/12/30 11:45:31;;;;;;;52.25;36.35;;;6.20;87.30;;;;;;10812181;33;20019;-70
2021/12/30 11:51:50;;;;;;;43.22;30.30;;;6.50;86.90;;;;;;10824941;32;20028;-70
2021/12/30 11:57:52;;;;;;;33.47;24.23;;;6.70;86.70;;;;;;10823806;33;20093;-70
2021/12/30 12:03:54;;;;;;;38.60;27.10;;;6.90;86.60;;;;;;10824036;33;20392;-70
2021/12/30 12:10:15;;;;;;;29.85;23.25;;;7.10;86.50;;;;;;10824053;33;20051;-68
2021/12/30 12:16:49;;;;;;;33.75;23.92;;;7.00;86.30;;;;;;10807259;33;20051;-68
2021/12/30 12:22:51;;;;;;;28.98;19.27;;;7.10;86.30;;;;;;10823842;33;20042;-69
2021/12/30 12:29:22;;;;;;;35.03;22.98;;;7.10;86.30;;;;;;10824081;33;20071;-69
2021/12/30 12:35:27;;;;;;;29.63;21.45;;;7.20;86.30;;;;;;10825591;32;20032;-68
2021/12/30 12:41:31;;;;;;;32.47;24.25;;;7.20;86.30;;;;;;10828702;32;20054;-68
2021/12/30 12:47:34;;;;;;;37.35;28.05;;;7.30;86.30;;;;;;10829842;32;20023;-70
2021/12/30 12:53:39;;;;;;;42.25;32.08;;;7.40;86.40;;;;;;10829502;33;20028;-74
2021/12/30 12:59:41;;;;;;;39.58;30.08;;;7.50;86.50;;;;;;10829321;33;20024;-73
2021/12/30 13:06:09;;;;;;;43.75;31.02;;;7.50;86.50;;;;;;10828992;33;20020;-73
2021/12/30 13:12:11;;;;;;;35.85;24.48;;;7.60;86.50;;;;;;10811334;33;20176;-73
2021/12/30 13:18:14;;;;;;;55.03;38.67;;;7.60;86.50;;;;;;10828567;33;20093;-70
2021/12/30 13:24:28;;;;;;;39.47;27.65;;;7.60;86.60;;;;;;10826569;33;20028;-70
2021/12/30 13:30:31;;;;;;;40.58;26.05;;;7.60;86.60;;;;;;10824857;33;20032;-70
2021/12/30 13:37:17;;;;;;;36.30;25.77;;;7.60;86.60;;;;;;10826210;33;20020;-70
2021/12/30 13:43:23;;;;;;;40.00;27.20;;;7.60;86.60;;;;;;10827350;32;20047;-70
2021/12/30 13:49:25;;;;;;;39.22;27.62;;;7.70;86.50;;;;;;10827964;33;20047;-70
2021/12/30 13:55:39;;;;;;;43.03;27.65;;;7.70;86.50;;;;;;10828544;33;20035;-70
2021/12/30 14:01:41;;;;;;;34.42;22.23;;;7.80;86.40;;;;;;10813770;33;20032;-70
2021/12/30 14:07:49;;;;;;;42.28;28.42;;;7.80;86.40;;;;;;10791058;33;20059;-70
2021/12/30 14:13:52;;;;;;;40.28;28.17;;;7.80;86.50;;;;;;10790777;33;20024;-70
2021/12/30 14:20:12;;;;;;;45.42;30.20;;;7.80;86.50;;;;;;10791690;33;20074;-70
2021/12/30 14:26:45;;;;;;;31.92;23.50;;;7.80;86.60;;;;;;10815063;33;20446;-70
2021/12/30 14:32:48;;;;;;;48.63;32.72;;;7.80;86.60;;;;;;10677505;33;20057;-70
2021/12/30 14:39:22;;;;;;;38.85;25.02;;;7.80;86.50;;;;;;10675547;32;20334;-70
2021/12/30 14:45:25;;;;;;;39.83;28.15;;;7.80;86.50;;;;;;10674699;33;20041;-70
2021/12/30 14:51:33;;;;;;;38.00;28.75;;;7.70;86.60;;;;;;10648573;32;20332;-70
2021/12/30 14:57:35;;;;;;;50.60;34.80;;;7.60;86.80;;;;;;10663521;32;20053;-70
2021/12/30 15:03:37;;;;;;;36.25;25.12;;;7.50;86.90;;;;;;10678023;33;20021;-70
2021/12/30 15:09:42;;;;;;;36.08;23.30;;;7.40;87.00;;;;;;10804847;32;20043;-70
2021/12/30 15:15:47;;;;;;;35.30;24.80;;;7.30;87.00;;;;;;10826376;33;20027;-70
2021/12/30 15:21:49;;;;;;;38.78;26.45;;;7.20;87.10;;;;;;10826189;33;20051;-70
2021/12/30 15:27:51;;;;;;;35.78;21.83;;;7.20;87.20;;;;;;10825892;33;20031;-70
2021/12/30 15:33:53;;;;;;;33.38;22.98;;;7.10;87.20;;;;;;10825825;33;20062;-70
2021/12/30 15:39:55;;;;;;;27.23;18.80;;;7.00;87.20;;;;;;10825661;33;20024;-70
2021/12/30 15:45:57;;;;;;;27.92;16.42;;;6.90;87.20;;;;;;10812280;33;20054;-70
2021/12/30 15:51:59;;;;;;;31.10;21.17;;;6.80;87.30;;;;;;10824955;33;20025;-70
2021/12/30 15:58:02;;;;;;;36.30;28.70;;;6.70;87.20;;;;;;10824822;33;20407;-70
2021/12/30 16:04:07;;;;;;;61.25;42.53;;;6.60;87.30;;;;;;10788517;33;20047;-70
2021/12/30 16:10:10;;;;;;;37.15;24.55;;;6.60;87.30;;;;;;10786593;33;20032;-73
2021/12/30 16:16:12;;;;;;;29.58;21.75;;;6.50;87.30;;;;;;10824295;33;20064;-73
2021/12/30 16:22:14;;;;;;;25.17;18.75;;;6.40;87.30;;;;;;10824010;33;20028;-73
2021/12/30 16:28:16;;;;;;;26.62;16.62;;;6.30;87.30;;;;;;10823883;33;20023;-74
2021/12/30 16:34:19;;;;;;;33.33;24.25;;;6.20;87.30;;;;;;10823686;33;20032;-73
2021/12/30 16:40:23;;;;;;;30.92;21.70;;;6.20;87.20;;;;;;10814598;33;20028;-74
2021/12/30 16:46:27;;;;;;;30.95;21.98;;;6.10;87.20;;;;;;10786694;33;20047;-73
2021/12/30 16:52:29;;;;;;;26.62;18.67;;;6.00;87.30;;;;;;10792047;33;20028;-73
2021/12/30 16:58:31;;;;;;;32.08;18.27;;;6.00;87.30;;;;;;10822588;33;20032;-73
2021/12/30 17:04:34;;;;;;;36.65;24.30;;;5.90;87.30;;;;;;10808895;33;20224;-73
2021/12/30 17:11:02;;;;;;;25.58;19.08;;;5.90;87.30;;;;;;10823018;33;20036;-73
2021/12/30 17:17:04;;;;;;;27.87;17.62;;;5.90;87.20;;;;;;10788057;33;20066;-73
2021/12/30 17:23:07;;;;;;;65.72;34.20;;;5.90;87.20;;;;;;10788287;33;20051;-73
2021/12/30 17:29:09;;;;;;;27.55;17.90;;;5.90;87.20;;;;;;10792008;33;20029;-73
2021/12/30 17:35:52;;;;;;;45.70;29.25;;;5.80;87.20;;;;;;10792005;33;20058;-73
2021/12/30 17:41:54;;;;;;;30.40;20.23;;;5.80;87.20;;;;;;10787959;27;20097;-73
2021/12/30 17:48:12;;;;;;;95.05;43.33;;;5.70;87.20;;;;;;10828802;33;20043;-73
2021/12/30 17:54:14;;;;;;;73.93;34.03;;;5.70;87.20;;;;;;10825988;33;20036;-73
2021/12/30 18:00:18;;;;;;;35.22;25.27;;;5.60;87.20;;;;;;10827578;33;20042;-73
2021/12/30 18:06:20;;;;;;;30.05;22.35;;;5.60;87.30;;;;;;10828367;33;20062;-73
2021/12/30 18:12:23;;;;;;;38.08;22.65;;;5.60;87.30;;;;;;10826508;33;20097;-73
2021/12/30 18:18:25;;;;;;;33.28;25.65;;;5.60;87.30;;;;;;10827673;33;20345;-73
2021/12/30 18:24:28;;;;;;;36.63;25.90;;;5.70;87.20;;;;;;10814270;33;20038;-73
2021/12/30 18:30:43;;;;;;;39.90;29.42;;;5.70;87.20;;;;;;10826698;32;20419;-73
2021/12/30 18:43:53;;;;;;;36.03;26.73;;;5.60;87.20;;;;;;10827332;33;20020;-73
2021/12/30 18:49:55;;;;;;;40.08;27.25;;;5.50;87.40;;;;;;10827161;33;20023;-73
2021/12/30 18:55:58;;;;;;;31.70;22.50;;;5.50;87.50;;;;;;10826888;33;20028;-74
2021/12/30 19:02:01;;;;;;;25.58;20.05;;;5.40;87.50;;;;;;10813669;33;20046;-74
2021/12/30 19:08:03;;;;;;;25.77;19.40;;;5.40;87.50;;;;;;10826629;33;20328;-74
2021/12/30 19:14:05;;;;;;;26.37;16.98;;;5.40;87.50;;;;;;10823756;33;20048;-74
2021/12/30 19:20:10;;;;;;;41.97;22.83;;;5.40;87.50;;;;;;10826236;33;20016;-74
2021/12/30 19:26:13;;;;;;;45.50;22.25;;;5.40;87.60;;;;;;10826178;33;20042;-74
2021/12/30 19:32:15;;;;;;;27.58;19.67;;;5.30;87.60;;;;;;10825867;33;20332;-74
2021/12/30 19:38:18;;;;;;;24.20;16.80;;;5.30;87.70;;;;;;10825609;33;20324;-74
2021/12/30 19:44:21;;;;;;;20.45;14.75;;;5.20;87.70;;;;;;10824587;32;20023;-73
2021/12/30 19:50:24;;;;;;;50.12;19.25;;;5.30;87.70;;;;;;10825360;33;20028;-74
2021/12/30 19:56:26;;;;;;;24.80;19.27;;;5.30;87.60;;;;;;10825329;33;20054;-74
2021/12/30 20:02:28;;;;;;;25.55;15.98;;;5.30;87.60;;;;;;10824838;33;20019;-74
2021/12/30 20:08:30;;;;;;;29.37;20.58;;;5.20;87.60;;;;;;10820982;33;20054;-74
2021/12/30 20:14:34;;;;;;;17.33;11.55;;;5.30;87.50;;;;;;10824748;33;20050;-73
2021/12/30 20:20:36;;;;;;;23.00;14.98;;;5.20;87.50;;;;;;10824672;33;20020;-72
2021/12/30 20:26:42;;;;;;;20.83;14.23;;;5.30;87.50;;;;;;10822384;33;20019;-74
2021/12/30 20:32:48;;;;;;;20.42;13.73;;;5.30;87.50;;;;;;10824508;33;20015;-73
2021/12/30 20:38:51;;;;;;;14.13;11.15;;;5.40;87.50;;;;;;10824014;33;20024;-74
2021/12/30 20:44:53;;;;;;;17.98;11.43;;;5.30;87.30;;;;;;10810624;33;20286;-74
2021/12/30 20:50:56;;;;;;;19.33;11.38;;;5.20;87.40;;;;;;10823966;32;20331;-74
2021/12/30 20:56:59;;;;;;;19.55;12.90;;;5.20;87.30;;;;;;10830208;33;20050;-74
2021/12/30 21:03:01;;;;;;;19.37;11.98;;;5.10;87.30;;;;;;10830303;33;20019;-74
2021/12/30 21:09:04;;;;;;;17.23;13.18;;;5.10;87.40;;;;;;10829504;33;20398;-74
2021/12/30 21:15:07;;;;;;;12.05;8.43;;;5.10;87.40;;;;;;10829756;33;20059;-73
2021/12/30 21:21:09;;;;;;;16.55;12.18;;;5.10;87.40;;;;;;10829615;33;20024;-73
2021/12/30 21:27:11;;;;;;;19.05;12.57;;;5.20;87.50;;;;;;10829435;33;20368;-73
2021/12/30 21:33:17;;;;;;;36.50;18.98;;;5.20;87.40;;;;;;10829313;33;20074;-73
2021/12/30 21:39:19;;;;;;;12.52;9.85;;;5.20;87.40;;;;;;10829151;33;20012;-73
2021/12/30 21:45:21;;;;;;;65.55;20.20;;;5.30;87.30;;;;;;10829089;33;20396;-74
2021/12/30 21:51:23;;;;;;;23.38;14.07;;;5.10;87.10;;;;;;10828920;33;20016;-73
2021/12/30 21:57:25;;;;;;;47.45;19.50;;;4.90;87.00;;;;;;10828587;33;20032;-73
2021/12/30 22:03:54;;;;;;;47.72;21.20;;;4.80;87.20;;;;;;10827518;32;20024;-73
2021/12/30 22:09:56;;;;;;;81.82;25.27;;;4.70;87.20;;;;;;10828302;33;20039;-74
2021/12/30 22:15:59;;;;;;;37.28;19.20;;;4.60;87.30;;;;;;10824480;33;20024;-73
2021/12/30 22:22:02;;;;;;;33.22;16.08;;;4.50;87.30;;;;;;10827941;33;20294;-73
2021/12/30 22:28:08;;;;;;;16.90;9.90;;;4.60;87.40;;;;;;10826317;33;20328;-73
2021/12/30 22:34:10;;;;;;;36.60;15.35;;;4.60;87.40;;;;;;10814269;33;20054;-73
2021/12/30 22:40:16;;;;;;;50.60;14.40;;;4.70;87.40;;;;;;10827252;33;20382;-73
2021/12/30 22:46:18;;;;;;;25.65;11.23;;;4.60;87.30;;;;;;10827023;33;20019;-73
2021/12/30 22:52:20;;;;;;;11.77;7.82;;;4.60;87.20;;;;;;10813489;33;20024;-73
2021/12/30 22:58:23;;;;;;;14.23;9.23;;;4.60;87.30;;;;;;10813746;33;20336;-73
2021/12/30 23:04:38;;;;;;;15.00;10.55;;;4.60;87.30;;;;;;10813620;33;20013;-73
2021/12/30 23:10:41;;;;;;;15.02;9.88;;;4.60;87.20;;;;;;10824249;33;20085;-73
2021/12/30 23:16:44;;;;;;;32.33;15.98;;;4.50;87.20;;;;;;10825965;32;20032;-73
2021/12/30 23:22:46;;;;;;;17.30;11.50;;;4.50;87.30;;;;;;10825952;33;20050;-73
2021/12/30 23:28:48;;;;;;;45.00;17.90;;;4.40;87.10;;;;;;10812872;33;20062;-73
2021/12/30 23:34:51;;;;;;;14.70;10.20;;;4.40;87.10;;;;;;10825846;33;20028;-73
2021/12/30 23:40:53;;;;;;;21.58;14.02;;;4.30;87.10;;;;;;10821828;33;20024;-74
2021/12/30 23:46:55;;;;;;;16.45;9.98;;;4.30;87.20;;;;;;10825522;33;20046;-73
2021/12/30 23:52:57;;;;;;;10.27;7.28;;;4.40;87.30;;;;;;10825164;33;20027;-73
2021/12/30 23:59:00;;;;;;;23.33;13.85;;;4.40;87.20;;;;;;10825135;33;20388;-74
